Time;durP1;ratioP1;P1;durP2;ratioP2;P2;SDS_P1;SDS_P2;PMS_P1;PMS_P2;Temp;Humidity;BMP_temperature;BMP_pressure;BME280_temperature;BME280_humidity;BME280_pressure;Samples;Min_cycle;Max_cycle;Signal;HPM_P1;HPM_P2
2023/03/18 00:04:01;;;;;;;58.15;15.65;;;;;;;;;;12813700;19;20345;-67
2023/03/18 00:09:10;;;;;;;51.72;17.08;;;;;;;;;;12814111;19;20472;-67
2023/03/18 00:14:21;;;;;;;53.05;15.15;;;;;;;;;;12812466;19;20437;-67
2023/03/18 00:19:06;;;;;;;46.53;13.67;;;;;;;;;;12819960;19;20110;-68
2023/03/18 00:23:43;;;;;;;45.92;15.13;;;;;;;;;;12821710;19;20704;-66
2023/03/18 00:28:28;;;;;;;41.83;12.48;;;;;;;;;;12814023;19;20387;-67
2023/03/18 00:33:00;;;;;;;54.20;16.60;;;;;;;;;;12814487;19;20446;-67
2023/03/18 00:37:47;;;;;;;47.55;13.48;;;;;;;;;;12811498;19;20362;-67
2023/03/18 00:42:24;;;;;;;54.65;16.48;;;;;;;;;;12812681;19;20354;-67
2023/03/18 02:28:14;;;;;;;73.88;22.73;;;;;;;;;;12715748;19;2005041;-67
2023/03/18 02:33:01;;;;;;;96.63;29.48;;;;;;;;;;12818992;19;20388;-67
2023/03/18 02:37:18;;;;;;;82.70;23.33;;;;;;;;;;12819398;19;20434;-67
2023/03/18 02:48:10;;;;;;;73.13;21.42;;;;;;;;;;12715752;19;2005287;-67
2023/03/18 02:52:32;;;;;;;49.72;18.70;;;;;;;;;;12817292;19;20315;-67
2023/03/18 02:58:01;;;;;;;44.85;16.40;;;;;;;;;;12819466;19;20607;-67
2023/03/18 03:03:08;;;;;;;31.05;13.68;;;;;;;;;;12714572;19;2005015;-67
2023/03/18 03:08:01;;;;;;;28.55;10.93;;;;;;;;;;12819026;19;20556;-67
2023/03/18 03:12:30;;;;;;;24.52;10.75;;;;;;;;;;12817546;19;20034;-67
2023/03/18 03:23:00;;;;;;;28.90;11.23;;;;;;;;;;12813951;19;20290;-67
2023/03/18 03:27:27;;;;;;;22.42;9.98;;;;;;;;;;12819379;19;20322;-66
2023/03/18 03:33:03;;;;;;;21.60;9.38;;;;;;;;;;12822690;19;20438;-67
2023/03/18 03:38:05;;;;;;;28.48;12.52;;;;;;;;;;12720242;19;2005044;-67
2023/03/18 03:42:35;;;;;;;24.50;9.90;;;;;;;;;;12821830;19;20016;-67
2023/03/18 03:53:40;;;;;;;17.58;10.07;;;;;;;;;;12718331;19;2005602;-67
2023/03/18 03:59:04;;;;;;;21.27;8.15;;;;;;;;;;12821024;19;20430;-67
2023/03/18 04:03:34;;;;;;;15.10;6.53;;;;;;;;;;12818628;19;20074;-67
2023/03/18 04:07:58;;;;;;;12.45;6.72;;;;;;;;;;12823507;19;20497;-67
2023/03/18 04:13:15;;;;;;;15.25;7.03;;;;;;;;;;12813593;19;20010;-67
2023/03/18 04:18:05;;;;;;;13.75;6.65;;;;;;;;;;12813699;19;20521;-67
2023/03/18 04:22:31;;;;;;;15.82;8.23;;;;;;;;;;12812934;19;20413;-68
2023/03/18 04:27:54;;;;;;;16.35;8.05;;;;;;;;;;12811450;19;20376;-67
2023/03/18 04:33:00;;;;;;;16.77;7.38;;;;;;;;;;12816276;19;20307;-67
2023/03/18 04:37:35;;;;;;;15.65;8.30;;;;;;;;;;12818078;19;20344;-67
2023/03/18 04:42:21;;;;;;;17.63;8.57;;;;;;;;;;12818100;19;20476;-67
2023/03/18 04:53:06;;;;;;;22.75;10.40;;;;;;;;;;12713966;19;2005666;-67
2023/03/18 04:57:56;;;;;;;28.50;12.45;;;;;;;;;;12813303;19;20437;-66
2023/03/18 05:02:15;;;;;;;34.00;15.10;;;;;;;;;;12819081;19;20086;-67
2023/03/18 05:18:43;;;;;;;32.25;13.00;;;;;;;;;;12809961;19;20383;-68
2023/03/18 05:24:24;;;;;;;17.30;8.57;;;;;;;;;;12809633;19;20540;-67
2023/03/18 05:35:02;;;;;;;18.85;8.18;;;;;;;;;;12815415;19;20339;-67
2023/03/18 05:46:12;;;;;;;24.00;10.93;;;;;;;;;;12808620;19;20022;-67
2023/03/18 05:51:17;;;;;;;;;;;;;;;;;;12818534;19;20312;-67
2023/03/18 05:56:14;;;;;;;29.77;11.40;;;;;;;;;;12818043;19;19907;-67
2023/03/18 06:01:43;;;;;;;29.75;11.40;;;;;;;;;;12820168;19;20337;-67
2023/03/18 06:07:06;;;;;;;20.52;9.02;;;;;;;;;;12718004;19;2005204;-67
2023/03/18 06:12:22;;;;;;;27.42;11.52;;;;;;;;;;12820511;19;20862;-67
2023/03/18 06:23:17;;;;;;;10.43;5.93;;;;;;;;;;12717390;19;2006102;-67
2023/03/18 06:28:10;;;;;;;16.38;6.90;;;;;;;;;;12817388;19;20320;-67
2023/03/18 06:32:34;;;;;;;14.63;6.15;;;;;;;;;;12815242;19;20327;-68
2023/03/18 06:37:23;;;;;;;14.63;6.13;;;;;;;;;;12823431;19;20604;-68
2023/03/18 06:47:41;;;;;;;12.43;5.22;;;;;;;;;;12821698;19;20295;-67
2023/03/18 06:52:20;;;;;;;11.88;6.18;;;;;;;;;;12824080;19;20014;-67
2023/03/18 07:04:01;;;;;;;10.95;5.63;;;;;;;;;;12713771;19;2006124;-67
2023/03/18 07:09:01;;;;;;;14.25;5.20;;;;;;;;;;12815220;19;20445;-68
2023/03/18 07:13:30;;;;;;;11.02;5.30;;;;;;;;;;12824529;19;20006;-68
2023/03/18 07:19:01;;;;;;;13.15;6.47;;;;;;;;;;12822513;19;20459;-68
2023/03/18 07:24:10;;;;;;;13.55;6.38;;;;;;;;;;12713259;19;2005031;-67
2023/03/18 07:28:39;;;;;;;14.93;5.65;;;;;;;;;;12813855;19;20331;-67
2023/03/18 07:33:32;;;;;;;16.67;5.45;;;;;;;;;;12821209;19;20011;-68
2023/03/18 07:38:17;;;;;;;14.15;5.85;;;;;;;;;;12814483;19;20414;-67
2023/03/18 07:43:16;;;;;;;6.55;3.63;;;;;;;;;;12813258;19;20303;-67
2023/03/18 07:48:08;;;;;;;11.77;4.80;;;;;;;;;;12817141;19;20457;-68
2023/03/18 07:53:27;;;;;;;10.73;4.93;;;;;;;;;;12823296;19;20354;-68
2023/03/18 07:59:09;;;;;;;11.05;4.78;;;;;;;;;;12819552;19;20444;-68
2023/03/18 08:03:58;;;;;;;12.60;4.53;;;;;;;;;;12820075;19;20302;-68
2023/03/18 08:08:32;;;;;;;6.20;3.63;;;;;;;;;;12820567;19;20429;-68
2023/03/18 08:14:13;;;;;;;10.02;5.10;;;;;;;;;;12818632;19;20335;-68
2023/03/18 08:19:06;;;;;;;11.15;4.35;;;;;;;;;;12817339;19;20434;-68
2023/03/18 08:23:33;;;;;;;15.55;5.28;;;;;;;;;;12819103;19;20429;-67
2023/03/18 08:29:22;;;;;;;8.50;4.55;;;;;;;;;;12818215;19;20465;-68
2023/03/18 08:34:18;;;;;;;6.90;3.40;;;;;;;;;;12809798;19;20498;-68
2023/03/18 08:38:40;;;;;;;9.65;3.72;;;;;;;;;;12810995;19;20434;-68
2023/03/18 08:43:51;;;;;;;;;;;;;;;;;;12812718;19;20432;-67
2023/03/18 08:59:31;;;;;;;10.20;4.35;;;;;;;;;;12809634;19;20348;-69
2023/03/18 09:05:00;;;;;;;5.85;2.97;;;;;;;;;;12814213;19;20441;-68
2023/03/18 09:10:08;;;;;;;7.90;3.33;;;;;;;;;;12809444;19;20306;-68
2023/03/18 09:15:01;;;;;;;8.77;3.83;;;;;;;;;;12809472;19;20454;-68
2023/03/18 09:26:38;;;;;;;6.88;3.10;;;;;;;;;;12819980;19;20303;-67
2023/03/18 09:32:04;;;;;;;11.07;3.75;;;;;;;;;;12823514;19;20007;-67
2023/03/18 09:49:13;;;;;;;9.05;3.92;;;;;;;;;;12819859;19;20418;-68
2023/03/18 09:54:07;;;;;;;4.32;2.45;;;;;;;;;;12819846;19;20434;-67
2023/03/18 10:10:18;;;;;;;7.43;3.22;;;;;;;;;;12824668;19;20021;-67
2023/03/18 10:27:18;;;;;;;5.95;2.70;;;;;;;;;;12723176;19;2005116;-67
2023/03/18 10:32:36;;;;;;;6.70;3.65;;;;;;;;;;12822976;19;20375;-68
2023/03/18 10:38:22;;;;;;;4.68;2.53;;;;;;;;;;12816295;19;20490;-68
2023/03/18 10:43:06;;;;;;;6.03;2.45;;;;;;;;;;12817403;19;20481;-67
2023/03/18 10:55:27;;;;;;;7.03;2.42;;;;;;;;;;12715308;19;2005366;-68
2023/03/18 11:07:17;;;;;;;4.82;2.33;;;;;;;;;;12715337;19;2005087;-68
2023/03/18 11:12:29;;;;;;;4.88;2.00;;;;;;;;;;12817086;19;20534;-68
2023/03/18 11:24:41;;;;;;;5.43;2.10;;;;;;;;;;12815544;19;20315;-67
2023/03/18 11:41:29;;;;;;;6.50;3.42;;;;;;;;;;12710630;19;2005044;-67
2023/03/18 11:46:09;;;;;;;4.30;1.90;;;;;;;;;;12812104;19;20343;-68
2023/03/18 11:57:37;;;;;;;6.97;3.13;;;;;;;;;;12711372;19;2004838;-68
2023/03/18 12:09:35;;;;;;;4.22;2.15;;;;;;;;;;12812248;19;20470;-68
2023/03/18 12:15:12;;;;;;;5.27;2.60;;;;;;;;;;12813902;19;20556;-68
2023/03/18 12:20:59;;;;;;;5.55;2.50;;;;;;;;;;12811780;19;20413;-68
2023/03/18 12:38:37;;;;;;;5.07;2.00;;;;;;;;;;12710314;19;2005245;-68
2023/03/18 12:50:07;;;;;;;4.85;2.30;;;;;;;;;;12811160;19;20454;-68
2023/03/18 12:55:15;;;;;;;6.00;2.42;;;;;;;;;;12815082;19;20438;-68
2023/03/18 13:00:26;;;;;;;10.07;2.22;;;;;;;;;;12822957;19;20426;-68
2023/03/18 13:11:00;;;;;;;5.70;2.92;;;;;;;;;;12821185;19;20311;-68
2023/03/18 13:16:07;;;;;;;;;;;;;;;;;;12822045;19;19999;-69
2023/03/18 13:27:32;;;;;;;5.38;2.47;;;;;;;;;;12819598;19;20308;-67
2023/03/18 13:33:00;;;;;;;5.97;2.45;;;;;;;;;;12823622;19;20293;-69
2023/03/18 13:38:09;;;;;;;7.30;2.63;;;;;;;;;;12820750;19;20033;-67
2023/03/18 13:48:00;;;;;;;10.00;2.80;;;;;;;;;;12819961;19;20483;-67
2023/03/18 13:52:42;;;;;;;11.48;3.85;;;;;;;;;;12819976;19;20007;-69
2023/03/18 13:58:29;;;;;;;6.95;2.40;;;;;;;;;;12820743;19;20444;-68
2023/03/18 14:04:11;;;;;;;8.05;3.30;;;;;;;;;;12818761;19;20371;-68
2023/03/18 14:09:30;;;;;;;6.72;3.10;;;;;;;;;;12821339;19;20394;-67
2023/03/18 14:15:26;;;;;;;5.32;2.90;;;;;;;;;;12826948;19;20006;-68
2023/03/18 14:26:23;;;;;;;8.35;3.63;;;;;;;;;;12824113;19;20493;-67
2023/03/18 14:32:10;;;;;;;10.05;4.30;;;;;;;;;;12824388;19;20469;-68
2023/03/18 14:38:21;;;;;;;13.27;5.18;;;;;;;;;;12717194;19;2005023;-67
2023/03/18 14:43:09;;;;;;;5.60;3.33;;;;;;;;;;12822772;19;20307;-68
2023/03/18 14:47:58;;;;;;;10.07;4.50;;;;;;;;;;12824824;19;20410;-67
2023/03/18 14:53:51;;;;;;;10.18;4.25;;;;;;;;;;12821017;19;20063;-68
2023/03/18 14:59:05;;;;;;;8.18;4.05;;;;;;;;;;12810092;19;21199;-67
2023/03/18 15:09:09;;;;;;;5.90;3.20;;;;;;;;;;12811891;19;21115;-67
2023/03/18 15:14:00;;;;;;;10.20;5.38;;;;;;;;;;12809977;19;20639;-67
2023/03/18 15:19:04;;;;;;;27.70;12.73;;;;;;;;;;12810724;19;20430;-68
2023/03/18 15:24:11;;;;;;;16.20;7.63;;;;;;;;;;12808215;19;20295;-68
2023/03/18 15:29:35;;;;;;;10.50;5.57;;;;;;;;;;12812658;19;20011;-68
2023/03/18 15:35:03;;;;;;;8.82;4.55;;;;;;;;;;12812930;19;20006;-68
2023/03/18 15:40:31;;;;;;;17.30;8.40;;;;;;;;;;12819276;19;20379;-67
2023/03/18 15:45:30;;;;;;;21.52;9.15;;;;;;;;;;12815702;19;20488;-68
2023/03/18 15:50:18;;;;;;;18.98;7.80;;;;;;;;;;12821921;19;20318;-68
2023/03/18 16:01:24;;;;;;;5.85;2.83;;;;;;;;;;12712743;19;2005012;-67
2023/03/18 16:06:23;;;;;;;8.68;2.70;;;;;;;;;;12814218;19;20386;-68
2023/03/18 16:11:02;;;;;;;6.43;3.10;;;;;;;;;;12819002;19;20426;-68
2023/03/18 16:22:05;;;;;;;12.00;3.83;;;;;;;;;;12817524;19;20040;-68
2023/03/18 16:28:06;;;;;;;12.40;3.58;;;;;;;;;;12818350;19;20314;-68
2023/03/18 16:32:25;;;;;;;11.80;4.63;;;;;;;;;;12817904;19;20461;-68
2023/03/18 16:42:26;;;;;;;157.27;45.42;;;;;;;;;;12815644;19;20123;-68
2023/03/18 16:48:03;;;;;;;93.43;28.90;;;;;;;;;;12814578;19;20378;-68
2023/03/18 16:59:30;;;;;;;11.80;5.75;;;;;;;;;;12809757;19;20296;-68
2023/03/18 17:04:33;;;;;;;18.88;7.80;;;;;;;;;;12810477;19;20750;-68
2023/03/18 17:15:42;;;;;;;26.35;10.10;;;;;;;;;;12808397;19;20336;-68
2023/03/18 17:20:25;;;;;;;26.73;10.80;;;;;;;;;;12815597;19;20753;-69
2023/03/18 17:25:00;;;;;;;26.83;11.68;;;;;;;;;;12816283;19;20007;-68
2023/03/18 17:36:02;;;;;;;31.58;11.30;;;;;;;;;;12815385;19;20027;-69
2023/03/18 17:41:04;;;;;;;50.47;15.75;;;;;;;;;;12814367;19;20312;-68
2023/03/18 17:52:41;;;;;;;34.63;12.25;;;;;;;;;;12820155;19;20436;-67
2023/03/18 17:57:29;;;;;;;26.95;10.48;;;;;;;;;;12820513;19;20605;-67
2023/03/18 18:03:02;;;;;;;22.60;9.85;;;;;;;;;;12829475;19;20368;-68
2023/03/18 18:08:34;;;;;;;31.17;9.20;;;;;;;;;;12818967;19;20425;-68
2023/03/18 18:13:22;;;;;;;18.98;8.43;;;;;;;;;;12818730;19;20438;-68
2023/03/18 18:35:25;;;;;;;24.95;10.32;;;;;;;;;;12817674;19;21076;-68
2023/03/18 18:41:21;;;;;;;24.83;10.43;;;;;;;;;;12817244;19;20457;-69
2023/03/18 18:46:35;;;;;;;37.58;13.05;;;;;;;;;;12817930;19;20458;-68
2023/03/18 19:02:58;;;;;;;57.83;20.75;;;;;;;;;;12814228;19;20025;-66
2023/03/18 19:07:28;;;;;;;64.13;25.05;;;;;;;;;;12816015;19;20380;-68
2023/03/18 19:13:01;;;;;;;95.93;31.05;;;;;;;;;;12817470;19;20568;-67
2023/03/18 19:23:07;;;;;;;99.03;35.90;;;;;;;;;;12820039;19;20439;-68
2023/03/18 19:34:24;;;;;;;99.72;33.55;;;;;;;;;;12723874;19;2004959;-67
2023/03/18 19:39:07;;;;;;;106.20;36.80;;;;;;;;;;12822614;19;20429;-67
2023/03/18 19:50:03;;;;;;;143.05;51.00;;;;;;;;;;12820662;19;20493;-67
2023/03/18 19:55:07;;;;;;;113.05;41.17;;;;;;;;;;12811874;19;20466;-67
2023/03/18 20:00:38;;;;;;;133.40;46.50;;;;;;;;;;12814448;19;20461;-68
2023/03/18 20:06:02;;;;;;;136.20;51.30;;;;;;;;;;12811272;19;20437;-68
2023/03/18 20:10:28;;;;;;;134.15;46.95;;;;;;;;;;12813649;19;20015;-67
2023/03/18 20:15:35;;;;;;;119.65;43.97;;;;;;;;;;12815002;19;20502;-68
2023/03/18 20:20:39;;;;;;;98.37;37.30;;;;;;;;;;12810914;19;20978;-67
2023/03/18 20:26:10;;;;;;;87.22;31.48;;;;;;;;;;12811155;19;20231;-67
2023/03/18 20:30:59;;;;;;;;;;;;;;;;;;12814587;19;20454;-67
2023/03/18 20:35:26;;;;;;;85.35;34.65;;;;;;;;;;12811786;19;20343;-68
2023/03/18 20:40:36;;;;;;;61.97;26.20;;;;;;;;;;12813339;19;20364;-68
2023/03/18 20:45:32;;;;;;;61.80;26.70;;;;;;;;;;12811669;19;20328;-67
2023/03/18 20:51:19;;;;;;;70.63;29.17;;;;;;;;;;12815292;19;20014;-68
2023/03/18 20:56:00;;;;;;;86.20;32.00;;;;;;;;;;12818439;19;20430;-68
2023/03/18 21:00:59;;;;;;;81.05;34.65;;;;;;;;;;12817600;19;20013;-68
2023/03/18 21:05:26;;;;;;;78.78;33.00;;;;;;;;;;12816798;19;20342;-68
2023/03/18 21:21:00;;;;;;;56.33;23.95;;;;;;;;;;12824303;19;20902;-68
2023/03/18 21:32:02;;;;;;;86.03;34.28;;;;;;;;;;12822153;19;20011;-68
2023/03/18 21:36:27;;;;;;;77.30;32.53;;;;;;;;;;12820542;19;20401;-68
2023/03/18 21:41:28;;;;;;;83.28;33.63;;;;;;;;;;12820604;19;20299;-68
2023/03/18 21:52:35;;;;;;;96.55;35.83;;;;;;;;;;12726152;19;2005098;-68
2023/03/18 21:57:38;;;;;;;96.35;36.40;;;;;;;;;;12828609;19;20024;-69
2023/03/18 22:02:21;;;;;;;94.65;37.35;;;;;;;;;;12828091;19;20315;-68
2023/03/18 22:07:38;;;;;;;88.75;35.40;;;;;;;;;;12828614;19;20369;-68
2023/03/18 22:18:02;;;;;;;122.15;46.80;;;;;;;;;;12818504;19;20126;-68
2023/03/18 22:23:34;;;;;;;203.23;62.80;;;;;;;;;;12820010;19;20447;-68
2023/03/18 22:29:17;;;;;;;;;;;;;;;;;;12717338;19;2005048;-68
2023/03/18 22:34:28;;;;;;;73.20;31.65;;;;;;;;;;12824864;19;20263;-69
2023/03/18 22:39:22;;;;;;;81.88;32.95;;;;;;;;;;12825211;19;20324;-67
2023/03/18 22:44:34;;;;;;;85.63;33.83;;;;;;;;;;12823091;19;20007;-68
2023/03/18 22:50:06;;;;;;;85.55;33.72;;;;;;;;;;12816680;19;20780;-68
2023/03/18 22:55:03;;;;;;;71.60;29.73;;;;;;;;;;12823245;19;20348;-68
2023/03/18 23:05:41;;;;;;;83.38;31.88;;;;;;;;;;12821579;19;20562;-68
2023/03/18 23:10:40;;;;;;;;;;;;;;;;;;12822468;19;20438;-68
2023/03/18 23:16:16;;;;;;;77.70;31.08;;;;;;;;;;12822322;19;20267;-68
2023/03/18 23:26:57;;;;;;;75.93;34.67;;;;;;;;;;12822450;19;20497;-67
2023/03/18 23:32:26;;;;;;;76.03;30.98;;;;;;;;;;12821451;19;20305;-68
2023/03/18 23:37:37;;;;;;;99.18;32.58;;;;;;;;;;12812736;19;20010;-68
2023/03/18 23:43:19;;;;;;;66.70;26.50;;;;;;;;;;12811843;19;20439;-68
2023/03/18 23:47:59;;;;;;;57.80;27.15;;;;;;;;;;12814824;19;20422;-68
2023/03/18 23:52:59;;;;;;;79.88;31.95;;;;;;;;;;12815140;19;20363;-68
2023/03/18 23:57:19;;;;;;;50.38;23.15;;;;;;;;;;12812837;19;20102;-67
